Overview Statistics Trail Chart Weather Telemetry Raw packets
 

This is the latest recevied weather packets stored in our database for station/object AA6HF. If no packets are shown the sender has not sent any weather packets the latest 10 day(s).

<< 59 60 61 62 63 64 65 >>
Time Temp. Humidity Pressure Rain* Wind** Luminosity Snow
1788273499 23.33° C 39% 1010.1 hPa 0 mm - - -
1788273199 22.78° C 42% 1010 hPa 0 mm - - -
1788272899 22.22° C 44% 1010 hPa 0 mm - - -
1788272599 22.22° C 42% 1010 hPa 0 mm - - -
1788272299 22.22° C 42% 1010 hPa 0 mm - - -
1788271999 21.67° C 42% 1009.9 hPa 0 mm - - -
1788271699 21.11° C 44% 1009.9 hPa 0 mm - - -
1788271399 21.11° C 43% 1009.7 hPa 0 mm - - -
1788271099 21.11° C 44% 1009.8 hPa 0 mm - - -
1788270799 21.11° C 43% 1009.7 hPa 0 mm - - -
1788270499 20.56° C 42% 1009.5 hPa 0 mm - - -
1788270199 20.56° C 41% 1009.5 hPa 0 mm - - -
1788269899 20.56° C 41% 1009.4 hPa 0 mm - - -
1788269599 20.56° C 41% 1009.3 hPa 0 mm - - -
1788269299 20.56° C 41% 1009.3 hPa 0 mm - - -
1788268999 20.56° C 40% 1009.3 hPa 0 mm - - -
1788268699 21.11° C 40% 1009.2 hPa 0 mm - - -
1788268399 21.11° C 39% 1009.2 hPa 0 mm - - -
1788268099 21.11° C 38% 1009.1 hPa 0 mm - - -
1788267799 21.11° C 39% 1009 hPa 0 mm - - -
1788267499 21.11° C 39% 1009.1 hPa 0 mm - - -
1788267199 21.67° C 38% 1009 hPa 0 mm - - -
1788266899 21.67° C 38% 1009 hPa 0 mm - - -
1788266599 21.67° C 37% 1009 hPa 0 mm - - -
1788266299 22.22° C 36% 1009 hPa 0 mm - - -

* Rain latest hour (hover to see other rain measurements)
** Current wind speed in m/s (hover to see current wind gust speed)